sensor_id;sensor_type;location;lat;lon;timestamp;P1;durP1;ratioP1;P2;durP2;ratioP2
69943;SDS011;57257;48.408;-4.498;2023-08-06T00:00:37;4.00;;;4.00;;
69943;SDS011;57257;48.408;-4.498;2023-08-06T00:03:03;4.00;;;3.00;;
69943;SDS011;57257;48.408;-4.498;2023-08-06T00:05:28;9.00;;;4.00;;
69943;SDS011;57257;48.408;-4.498;2023-08-06T00:07:54;9.25;;;4.00;;
69943;SDS011;57257;48.408;-4.498;2023-08-06T00:10:19;3.50;;;3.50;;
69943;SDS011;57257;48.408;-4.498;2023-08-06T00:12:45;3.75;;;3.75;;
69943;SDS011;57257;48.408;-4.498;2023-08-06T00:15:10;9.25;;;3.25;;
69943;SDS011;57257;48.408;-4.498;2023-08-06T00:17:36;2.75;;;2.50;;
69943;SDS011;57257;48.408;-4.498;2023-08-06T00:20:02;4.00;;;2.75;;
69943;SDS011;57257;48.408;-4.498;2023-08-06T00:22:32;2.50;;;2.50;;
69943;SDS011;57257;48.408;-4.498;2023-08-06T00:24:58;5.25;;;4.50;;
69943;SDS011;57257;48.408;-4.498;2023-08-06T00:27:24;5.25;;;2.75;;
69943;SDS011;57257;48.408;-4.498;2023-08-06T00:29:50;7.25;;;4.00;;
69943;SDS011;57257;48.408;-4.498;2023-08-06T00:32:15;5.75;;;4.00;;
69943;SDS011;57257;48.408;-4.498;2023-08-06T00:34:40;6.25;;;4.00;;
69943;SDS011;57257;48.408;-4.498;2023-08-06T00:37:06;6.00;;;3.50;;
69943;SDS011;57257;48.408;-4.498;2023-08-06T00:39:31;7.25;;;1.75;;
69943;SDS011;57257;48.408;-4.498;2023-08-06T00:41:56;13.50;;;4.00;;
69943;SDS011;57257;48.408;-4.498;2023-08-06T00:44:23;6.00;;;3.00;;
69943;SDS011;57257;48.408;-4.498;2023-08-06T00:46:48;13.50;;;6.75;;
69943;SDS011;57257;48.408;-4.498;2023-08-06T00:49:14;3.00;;;3.00;;
69943;SDS011;57257;48.408;-4.498;2023-08-06T00:51:40;5.00;;;4.00;;
69943;SDS011;57257;48.408;-4.498;2023-08-06T00:54:05;5.00;;;3.50;;
69943;SDS011;57257;48.408;-4.498;2023-08-06T00:56:31;9.50;;;4.00;;
69943;SDS011;57257;48.408;-4.498;2023-08-06T00:59:00;5.00;;;3.75;;
69943;SDS011;57257;48.408;-4.498;2023-08-06T01:01:26;4.50;;;3.50;;
69943;SDS011;57257;48.408;-4.498;2023-08-06T01:03:52;8.50;;;4.50;;
69943;SDS011;57257;48.408;-4.498;2023-08-06T01:06:19;1.00;;;1.00;;
69943;SDS011;57257;48.408;-4.498;2023-08-06T01:09:00;5.75;;;3.50;;
69943;SDS011;57257;48.408;-4.498;2023-08-06T01:11:44;5.75;;;4.50;;
69943;SDS011;57257;48.408;-4.498;2023-08-06T01:14:27;9.00;;;7.00;;
69943;SDS011;57257;48.408;-4.498;2023-08-06T01:16:55;4.00;;;3.25;;
69943;SDS011;57257;48.408;-4.498;2023-08-06T01:19:23;7.00;;;4.50;;
69943;SDS011;57257;48.408;-4.498;2023-08-06T01:21:49;6.25;;;4.75;;
69943;SDS011;57257;48.408;-4.498;2023-08-06T01:24:14;12.00;;;5.00;;
69943;SDS011;57257;48.408;-4.498;2023-08-06T01:26:51;4.00;;;3.00;;
69943;SDS011;57257;48.408;-4.498;2023-08-06T01:29:41;7.00;;;3.50;;
69943;SDS011;57257;48.408;-4.498;2023-08-06T01:32:11;5.25;;;5.25;;
69943;SDS011;57257;48.408;-4.498;2023-08-06T01:34:39;5.25;;;5.00;;
69943;SDS011;57257;48.408;-4.498;2023-08-06T01:37:08;5.00;;;4.00;;
69943;SDS011;57257;48.408;-4.498;2023-08-06T01:39:35;2.75;;;2.75;;
69943;SDS011;57257;48.408;-4.498;2023-08-06T01:42:01;8.75;;;1.50;;
69943;SDS011;57257;48.408;-4.498;2023-08-06T01:44:26;5.50;;;3.50;;
69943;SDS011;57257;48.408;-4.498;2023-08-06T01:46:52;8.25;;;5.50;;
69943;SDS011;57257;48.408;-4.498;2023-08-06T01:49:17;4.50;;;4.00;;
69943;SDS011;57257;48.408;-4.498;2023-08-06T01:51:43;8.25;;;3.75;;
69943;SDS011;57257;48.408;-4.498;2023-08-06T01:54:08;6.00;;;4.00;;
69943;SDS011;57257;48.408;-4.498;2023-08-06T01:56:34;2.75;;;2.25;;
69943;SDS011;57257;48.408;-4.498;2023-08-06T01:58:59;6.00;;;3.75;;
69943;SDS011;57257;48.408;-4.498;2023-08-06T02:01:25;3.75;;;2.00;;
69943;SDS011;57257;48.408;-4.498;2023-08-06T02:03:50;6.75;;;3.25;;
69943;SDS011;57257;48.408;-4.498;2023-08-06T02:06:15;5.25;;;3.00;;
69943;SDS011;57257;48.408;-4.498;2023-08-06T02:08:41;6.00;;;3.25;;
69943;SDS011;57257;48.408;-4.498;2023-08-06T02:11:07;5.75;;;3.25;;
69943;SDS011;57257;48.408;-4.498;2023-08-06T02:13:32;8.50;;;3.00;;
69943;SDS011;57257;48.408;-4.498;2023-08-06T02:15:57;0.75;;;0.75;;
69943;SDS011;57257;48.408;-4.498;2023-08-06T02:18:23;6.00;;;4.50;;
69943;SDS011;57257;48.408;-4.498;2023-08-06T02:20:57;3.00;;;2.75;;
69943;SDS011;57257;48.408;-4.498;2023-08-06T02:23:24;3.00;;;2.75;;
69943;SDS011;57257;48.408;-4.498;2023-08-06T02:25:57;4.00;;;3.25;;
69943;SDS011;57257;48.408;-4.498;2023-08-06T02:28:25;6.50;;;5.50;;
69943;SDS011;57257;48.408;-4.498;2023-08-06T02:30:51;4.50;;;3.50;;
69943;SDS011;57257;48.408;-4.498;2023-08-06T02:33:17;3.00;;;2.75;;
69943;SDS011;57257;48.408;-4.498;2023-08-06T02:35:42;4.25;;;3.50;;
69943;SDS011;57257;48.408;-4.498;2023-08-06T02:38:07;6.25;;;3.50;;
69943;SDS011;57257;48.408;-4.498;2023-08-06T02:40:33;10.25;;;4.00;;
69943;SDS011;57257;48.408;-4.498;2023-08-06T02:42:58;4.75;;;2.75;;
69943;SDS011;57257;48.408;-4.498;2023-08-06T02:45:23;3.75;;;3.25;;
69943;SDS011;57257;48.408;-4.498;2023-08-06T02:47:49;3.00;;;3.00;;
69943;SDS011;57257;48.408;-4.498;2023-08-06T02:50:14;7.25;;;4.50;;
69943;SDS011;57257;48.408;-4.498;2023-08-06T02:52:40;7.25;;;1.50;;
69943;SDS011;57257;48.408;-4.498;2023-08-06T02:55:06;5.50;;;1.00;;
69943;SDS011;57257;48.408;-4.498;2023-08-06T02:57:32;6.25;;;5.75;;
69943;SDS011;57257;48.408;-4.498;2023-08-06T02:59:58;3.00;;;3.00;;
69943;SDS011;57257;48.408;-4.498;2023-08-06T03:02:23;6.00;;;3.25;;
69943;SDS011;57257;48.408;-4.498;2023-08-06T03:04:48;1.75;;;1.75;;
69943;SDS011;57257;48.408;-4.498;2023-08-06T03:10:36;2.25;;;2.25;;
69943;SDS011;57257;48.408;-4.498;2023-08-06T03:13:01;3.75;;;3.00;;
69943;SDS011;57257;48.408;-4.498;2023-08-06T03:15:26;3.25;;;1.25;;
69943;SDS011;57257;48.408;-4.498;2023-08-06T03:17:52;4.50;;;2.50;;
69943;SDS011;57257;48.408;-4.498;2023-08-06T03:20:20;5.25;;;2.75;;
69943;SDS011;57257;48.408;-4.498;2023-08-06T03:22:46;6.00;;;1.50;;
69943;SDS011;57257;48.408;-4.498;2023-08-06T03:25:11;6.50;;;2.00;;
69943;SDS011;57257;48.408;-4.498;2023-08-06T03:27:37;1.00;;;1.00;;
69943;SDS011;57257;48.408;-4.498;2023-08-06T03:30:02;1.25;;;1.25;;
69943;SDS011;57257;48.408;-4.498;2023-08-06T03:32:28;1.00;;;1.00;;
69943;SDS011;57257;48.408;-4.498;2023-08-06T03:34:53;4.75;;;2.25;;
69943;SDS011;57257;48.408;-4.498;2023-08-06T03:37:18;4.00;;;1.25;;
69943;SDS011;57257;48.408;-4.498;2023-08-06T03:39:44;3.75;;;1.75;;
69943;SDS011;57257;48.408;-4.498;2023-08-06T03:42:09;4.50;;;4.00;;
69943;SDS011;57257;48.408;-4.498;2023-08-06T03:44:35;1.75;;;1.00;;
69943;SDS011;57257;48.408;-4.498;2023-08-06T03:47:00;5.50;;;3.00;;
69943;SDS011;57257;48.408;-4.498;2023-08-06T03:49:25;1.50;;;1.50;;
69943;SDS011;57257;48.408;-4.498;2023-08-06T03:51:51;6.50;;;1.00;;
69943;SDS011;57257;48.408;-4.498;2023-08-06T03:54:16;4.00;;;2.00;;
69943;SDS011;57257;48.408;-4.498;2023-08-06T03:56:42;5.75;;;3.50;;
69943;SDS011;57257;48.408;-4.498;2023-08-06T03:59:07;1.75;;;1.75;;
69943;SDS011;57257;48.408;-4.498;2023-08-06T04:01:32;1.50;;;1.50;;
69943;SDS011;57257;48.408;-4.498;2023-08-06T04:03:58;5.00;;;3.00;;
69943;SDS011;57257;48.408;-4.498;2023-08-06T04:06:23;5.75;;;1.50;;
69943;SDS011;57257;48.408;-4.498;2023-08-06T04:08:49;0.25;;;0.25;;
69943;SDS011;57257;48.408;-4.498;2023-08-06T04:11:14;4.75;;;2.75;;
69943;SDS011;57257;48.408;-4.498;2023-08-06T04:13:42;6.50;;;2.00;;
69943;SDS011;57257;48.408;-4.498;2023-08-06T04:16:08;7.25;;;5.00;;
69943;SDS011;57257;48.408;-4.498;2023-08-06T04:18:34;6.00;;;4.00;;
69943;SDS011;57257;48.408;-4.498;2023-08-06T04:21:01;7.25;;;2.50;;
69943;SDS011;57257;48.408;-4.498;2023-08-06T04:23:26;3.00;;;3.00;;
69943;SDS011;57257;48.408;-4.498;2023-08-06T04:25:52;4.75;;;3.75;;
69943;SDS011;57257;48.408;-4.498;2023-08-06T04:28:17;5.75;;;1.00;;
69943;SDS011;57257;48.408;-4.498;2023-08-06T04:30:42;3.00;;;2.75;;
69943;SDS011;57257;48.408;-4.498;2023-08-06T04:33:08;2.50;;;0.75;;
69943;SDS011;57257;48.408;-4.498;2023-08-06T04:35:33;9.75;;;3.75;;
69943;SDS011;57257;48.408;-4.498;2023-08-06T04:37:59;9.00;;;4.00;;
69943;SDS011;57257;48.408;-4.498;2023-08-06T04:40:24;3.75;;;3.25;;
69943;SDS011;57257;48.408;-4.498;2023-08-06T04:42:50;2.00;;;2.00;;
69943;SDS011;57257;48.408;-4.498;2023-08-06T04:45:15;5.25;;;3.25;;
69943;SDS011;57257;48.408;-4.498;2023-08-06T04:47:40;6.00;;;6.00;;
69943;SDS011;57257;48.408;-4.498;2023-08-06T04:50:06;5.50;;;5.50;;
69943;SDS011;57257;48.408;-4.498;2023-08-06T04:52:31;4.25;;;2.75;;
69943;SDS011;57257;48.408;-4.498;2023-08-06T04:54:57;1.50;;;1.50;;
69943;SDS011;57257;48.408;-4.498;2023-08-06T04:57:23;6.00;;;3.50;;
69943;SDS011;57257;48.408;-4.498;2023-08-06T04:59:48;2.25;;;1.00;;
69943;SDS011;57257;48.408;-4.498;2023-08-06T05:02:14;8.50;;;1.00;;
69943;SDS011;57257;48.408;-4.498;2023-08-06T05:04:39;3.25;;;2.25;;
69943;SDS011;57257;48.408;-4.498;2023-08-06T05:07:05;4.25;;;0.75;;
69943;SDS011;57257;48.408;-4.498;2023-08-06T05:09:31;2.00;;;1.50;;
69943;SDS011;57257;48.408;-4.498;2023-08-06T05:11:56;5.75;;;1.25;;
69943;SDS011;57257;48.408;-4.498;2023-08-06T05:14:22;4.00;;;1.25;;
69943;SDS011;57257;48.408;-4.498;2023-08-06T05:16:47;2.25;;;2.25;;
69943;SDS011;57257;48.408;-4.498;2023-08-06T05:19:13;2.75;;;0.50;;
69943;SDS011;57257;48.408;-4.498;2023-08-06T05:21:38;2.00;;;2.00;;
69943;SDS011;57257;48.408;-4.498;2023-08-06T05:24:03;4.00;;;1.00;;
69943;SDS011;57257;48.408;-4.498;2023-08-06T05:26:29;1.00;;;1.00;;
69943;SDS011;57257;48.408;-4.498;2023-08-06T05:28:54;3.00;;;1.00;;
69943;SDS011;57257;48.408;-4.498;2023-08-06T05:31:19;2.25;;;2.25;;
69943;SDS011;57257;48.408;-4.498;2023-08-06T05:33:45;4.00;;;1.25;;
69943;SDS011;57257;48.408;-4.498;2023-08-06T05:36:10;3.25;;;2.50;;
69943;SDS011;57257;48.408;-4.498;2023-08-06T05:38:36;3.25;;;1.00;;
69943;SDS011;57257;48.408;-4.498;2023-08-06T05:41:01;0.00;;;0.00;;
69943;SDS011;57257;48.408;-4.498;2023-08-06T05:43:26;7.25;;;2.00;;
69943;SDS011;57257;48.408;-4.498;2023-08-06T05:45:52;3.25;;;2.75;;
69943;SDS011;57257;48.408;-4.498;2023-08-06T05:48:17;3.50;;;1.50;;
69943;SDS011;57257;48.408;-4.498;2023-08-06T05:50:43;7.00;;;2.00;;
69943;SDS011;57257;48.408;-4.498;2023-08-06T05:53:08;2.00;;;1.50;;
69943;SDS011;57257;48.408;-4.498;2023-08-06T05:55:37;3.25;;;2.50;;
69943;SDS011;57257;48.408;-4.498;2023-08-06T05:58:03;2.75;;;2.75;;
69943;SDS011;57257;48.408;-4.498;2023-08-06T06:00:29;6.50;;;2.75;;
69943;SDS011;57257;48.408;-4.498;2023-08-06T06:02:54;3.50;;;1.50;;
69943;SDS011;57257;48.408;-4.498;2023-08-06T06:05:20;1.00;;;1.00;;
69943;SDS011;57257;48.408;-4.498;2023-08-06T06:07:45;3.50;;;2.75;;
69943;SDS011;57257;48.408;-4.498;2023-08-06T06:10:11;8.25;;;1.50;;
69943;SDS011;57257;48.408;-4.498;2023-08-06T06:12:37;0.25;;;0.25;;
69943;SDS011;57257;48.408;-4.498;2023-08-06T06:15:03;5.75;;;1.00;;
69943;SDS011;57257;48.408;-4.498;2023-08-06T06:17:29;3.50;;;0.00;;
69943;SDS011;57257;48.408;-4.498;2023-08-06T06:19:55;4.50;;;2.00;;
69943;SDS011;57257;48.408;-4.498;2023-08-06T06:22:20;2.75;;;2.00;;
69943;SDS011;57257;48.408;-4.498;2023-08-06T06:24:45;2.00;;;2.00;;
69943;SDS011;57257;48.408;-4.498;2023-08-06T06:27:11;5.75;;;2.50;;
69943;SDS011;57257;48.408;-4.498;2023-08-06T06:29:36;2.00;;;2.00;;
69943;SDS011;57257;48.408;-4.498;2023-08-06T06:32:01;4.00;;;0.50;;
69943;SDS011;57257;48.408;-4.498;2023-08-06T06:34:27;3.00;;;1.00;;
69943;SDS011;57257;48.408;-4.498;2023-08-06T06:36:52;3.00;;;2.00;;
69943;SDS011;57257;48.408;-4.498;2023-08-06T06:39:17;3.00;;;0.75;;
69943;SDS011;57257;48.408;-4.498;2023-08-06T06:41:43;5.00;;;2.00;;
69943;SDS011;57257;48.408;-4.498;2023-08-06T06:44:09;1.00;;;1.00;;
69943;SDS011;57257;48.408;-4.498;2023-08-06T06:46:34;3.50;;;3.00;;
69943;SDS011;57257;48.408;-4.498;2023-08-06T06:49:00;0.00;;;0.00;;
69943;SDS011;57257;48.408;-4.498;2023-08-06T06:51:25;3.25;;;1.00;;
69943;SDS011;57257;48.408;-4.498;2023-08-06T06:53:50;1.00;;;1.00;;
69943;SDS011;57257;48.408;-4.498;2023-08-06T06:56:16;0.75;;;0.25;;
69943;SDS011;57257;48.408;-4.498;2023-08-06T06:58:41;0.50;;;0.00;;
69943;SDS011;57257;48.408;-4.498;2023-08-06T07:01:07;6.75;;;1.50;;
69943;SDS011;57257;48.408;-4.498;2023-08-06T07:03:35;0.75;;;0.75;;
69943;SDS011;57257;48.408;-4.498;2023-08-06T07:06:00;1.00;;;1.00;;
69943;SDS011;57257;48.408;-4.498;2023-08-06T07:08:26;2.50;;;2.00;;
69943;SDS011;57257;48.408;-4.498;2023-08-06T07:10:59;0.00;;;0.00;;
69943;SDS011;57257;48.408;-4.498;2023-08-06T07:13:26;4.00;;;0.00;;
69943;SDS011;57257;48.408;-4.498;2023-08-06T07:15:51;1.00;;;1.00;;
69943;SDS011;57257;48.408;-4.498;2023-08-06T07:18:17;0.00;;;0.00;;
69943;SDS011;57257;48.408;-4.498;2023-08-06T07:20:47;2.00;;;0.00;;
69943;SDS011;57257;48.408;-4.498;2023-08-06T07:23:13;1.00;;;1.00;;
69943;SDS011;57257;48.408;-4.498;2023-08-06T07:25:39;0.00;;;0.00;;
69943;SDS011;57257;48.408;-4.498;2023-08-06T07:28:04;2.00;;;2.00;;
69943;SDS011;57257;48.408;-4.498;2023-08-06T07:30:30;1.00;;;1.00;;
69943;SDS011;57257;48.408;-4.498;2023-08-06T07:32:55;1.00;;;0.00;;
69943;SDS011;57257;48.408;-4.498;2023-08-06T07:35:21;6.75;;;1.00;;
69943;SDS011;57257;48.408;-4.498;2023-08-06T07:37:46;2.50;;;0.00;;
69943;SDS011;57257;48.408;-4.498;2023-08-06T07:40:12;0.00;;;0.00;;
69943;SDS011;57257;48.408;-4.498;2023-08-06T07:42:37;1.75;;;0.25;;
69943;SDS011;57257;48.408;-4.498;2023-08-06T07:45:03;6.00;;;1.00;;
69943;SDS011;57257;48.408;-4.498;2023-08-06T07:47:28;1.00;;;0.00;;
69943;SDS011;57257;48.408;-4.498;2023-08-06T07:49:54;3.50;;;1.00;;
69943;SDS011;57257;48.408;-4.498;2023-08-06T07:52:19;6.00;;;3.25;;
69943;SDS011;57257;48.408;-4.498;2023-08-06T07:54:45;1.00;;;1.00;;
69943;SDS011;57257;48.408;-4.498;2023-08-06T07:57:10;0.00;;;0.00;;
69943;SDS011;57257;48.408;-4.498;2023-08-06T07:59:36;2.50;;;0.50;;
69943;SDS011;57257;48.408;-4.498;2023-08-06T08:02:01;5.75;;;0.50;;
69943;SDS011;57257;48.408;-4.498;2023-08-06T08:04:27;2.00;;;1.00;;
69943;SDS011;57257;48.408;-4.498;2023-08-06T08:06:52;0.00;;;0.00;;
69943;SDS011;57257;48.408;-4.498;2023-08-06T08:09:18;0.25;;;0.00;;
69943;SDS011;57257;48.408;-4.498;2023-08-06T08:11:43;3.00;;;0.00;;
69943;SDS011;57257;48.408;-4.498;2023-08-06T08:14:09;0.00;;;0.00;;
69943;SDS011;57257;48.408;-4.498;2023-08-06T08:16:34;0.25;;;0.25;;
69943;SDS011;57257;48.408;-4.498;2023-08-06T08:18:59;0.25;;;0.25;;
69943;SDS011;57257;48.408;-4.498;2023-08-06T08:21:25;3.50;;;1.00;;
69943;SDS011;57257;48.408;-4.498;2023-08-06T08:23:51;3.00;;;0.50;;
69943;SDS011;57257;48.408;-4.498;2023-08-06T08:26:16;3.75;;;0.75;;
69943;SDS011;57257;48.408;-4.498;2023-08-06T08:28:42;1.00;;;1.00;;
69943;SDS011;57257;48.408;-4.498;2023-08-06T08:31:08;0.50;;;0.00;;
69943;SDS011;57257;48.408;-4.498;2023-08-06T08:33:34;5.00;;;2.25;;
69943;SDS011;57257;48.408;-4.498;2023-08-06T08:36:00;0.00;;;0.00;;
69943;SDS011;57257;48.408;-4.498;2023-08-06T08:38:25;0.75;;;0.00;;
69943;SDS011;57257;48.408;-4.498;2023-08-06T08:40:51;0.75;;;0.00;;
69943;SDS011;57257;48.408;-4.498;2023-08-06T08:43:20;1.00;;;1.00;;
69943;SDS011;57257;48.408;-4.498;2023-08-06T08:45:46;0.25;;;0.25;;
69943;SDS011;57257;48.408;-4.498;2023-08-06T08:48:15;1.50;;;1.00;;
69943;SDS011;57257;48.408;-4.498;2023-08-06T08:50:43;0.25;;;0.25;;
69943;SDS011;57257;48.408;-4.498;2023-08-06T08:53:10;1.00;;;0.00;;
69943;SDS011;57257;48.408;-4.498;2023-08-06T08:55:37;2.75;;;1.00;;
69943;SDS011;57257;48.408;-4.498;2023-08-06T08:58:03;0.50;;;0.00;;
69943;SDS011;57257;48.408;-4.498;2023-08-06T09:00:28;0.00;;;0.00;;
69943;SDS011;57257;48.408;-4.498;2023-08-06T09:02:54;2.75;;;1.00;;
69943;SDS011;57257;48.408;-4.498;2023-08-06T09:05:21;3.00;;;0.00;;
69943;SDS011;57257;48.408;-4.498;2023-08-06T09:07:49;1.00;;;1.00;;
69943;SDS011;57257;48.408;-4.498;2023-08-06T09:10:17;0.00;;;0.00;;
69943;SDS011;57257;48.408;-4.498;2023-08-06T09:12:48;0.75;;;0.75;;
69943;SDS011;57257;48.408;-4.498;2023-08-06T09:15:16;0.75;;;0.75;;
69943;SDS011;57257;48.408;-4.498;2023-08-06T09:17:41;3.00;;;3.00;;
69943;SDS011;57257;48.408;-4.498;2023-08-06T09:20:11;1.00;;;1.00;;
69943;SDS011;57257;48.408;-4.498;2023-08-06T09:22:39;0.00;;;0.00;;
69943;SDS011;57257;48.408;-4.498;2023-08-06T09:25:06;1.00;;;1.00;;
69943;SDS011;57257;48.408;-4.498;2023-08-06T09:27:35;2.50;;;1.00;;
69943;SDS011;57257;48.408;-4.498;2023-08-06T09:30:01;0.00;;;0.00;;
69943;SDS011;57257;48.408;-4.498;2023-08-06T09:32:30;0.50;;;0.50;;
69943;SDS011;57257;48.408;-4.498;2023-08-06T09:35:15;0.50;;;0.50;;
69943;SDS011;57257;48.408;-4.498;2023-08-06T09:37:41;0.00;;;0.00;;
69943;SDS011;57257;48.408;-4.498;2023-08-06T09:42:55;0.00;;;0.00;;
69943;SDS011;57257;48.408;-4.498;2023-08-06T09:45:22;0.00;;;0.00;;
69943;SDS011;57257;48.408;-4.498;2023-08-06T09:47:49;0.00;;;0.00;;
69943;SDS011;57257;48.408;-4.498;2023-08-06T09:50:18;0.00;;;0.00;;
69943;SDS011;57257;48.408;-4.498;2023-08-06T09:52:44;0.00;;;0.00;;
69943;SDS011;57257;48.408;-4.498;2023-08-06T09:55:13;0.00;;;0.00;;
69943;SDS011;57257;48.408;-4.498;2023-08-06T09:57:40;0.00;;;0.00;;
69943;SDS011;57257;48.408;-4.498;2023-08-06T10:00:09;3.00;;;2.00;;
69943;SDS011;57257;48.408;-4.498;2023-08-06T10:02:39;3.00;;;0.00;;
69943;SDS011;57257;48.408;-4.498;2023-08-06T10:05:08;0.00;;;0.00;;
69943;SDS011;57257;48.408;-4.498;2023-08-06T10:07:34;0.00;;;0.00;;
69943;SDS011;57257;48.408;-4.498;2023-08-06T10:10:00;0.00;;;0.00;;
69943;SDS011;57257;48.408;-4.498;2023-08-06T10:12:50;0.00;;;0.00;;
69943;SDS011;57257;48.408;-4.498;2023-08-06T10:15:15;1.00;;;0.00;;
69943;SDS011;57257;48.408;-4.498;2023-08-06T10:17:46;0.00;;;0.00;;
69943;SDS011;57257;48.408;-4.498;2023-08-06T10:20:14;0.00;;;0.00;;
69943;SDS011;57257;48.408;-4.498;2023-08-06T10:22:43;0.00;;;0.00;;
69943;SDS011;57257;48.408;-4.498;2023-08-06T10:25:10;0.75;;;0.75;;
69943;SDS011;57257;48.408;-4.498;2023-08-06T10:27:53;0.00;;;0.00;;
69943;SDS011;57257;48.408;-4.498;2023-08-06T10:32:58;1.00;;;0.00;;
69943;SDS011;57257;48.408;-4.498;2023-08-06T10:35:28;0.25;;;0.25;;
69943;SDS011;57257;48.408;-4.498;2023-08-06T10:43:31;1.00;;;0.00;;
69943;SDS011;57257;48.408;-4.498;2023-08-06T10:45:59;3.00;;;0.00;;
69943;SDS011;57257;48.408;-4.498;2023-08-06T10:50:59;0.00;;;0.00;;
69943;SDS011;57257;48.408;-4.498;2023-08-06T10:53:25;0.00;;;0.00;;
69943;SDS011;57257;48.408;-4.498;2023-08-06T10:55:51;0.00;;;0.00;;
69943;SDS011;57257;48.408;-4.498;2023-08-06T10:58:16;1.00;;;0.00;;
69943;SDS011;57257;48.408;-4.498;2023-08-06T11:00:42;0.25;;;0.25;;
69943;SDS011;57257;48.408;-4.498;2023-08-06T11:03:07;0.25;;;0.25;;
69943;SDS011;57257;48.408;-4.498;2023-08-06T11:05:33;0.00;;;0.00;;
69943;SDS011;57257;48.408;-4.498;2023-08-06T11:07:59;0.25;;;0.00;;
69943;SDS011;57257;48.408;-4.498;2023-08-06T11:10:24;0.25;;;0.25;;
69943;SDS011;57257;48.408;-4.498;2023-08-06T11:12:50;0.00;;;0.00;;
69943;SDS011;57257;48.408;-4.498;2023-08-06T11:15:16;0.75;;;0.00;;
69943;SDS011;57257;48.408;-4.498;2023-08-06T11:17:41;0.00;;;0.00;;
69943;SDS011;57257;48.408;-4.498;2023-08-06T11:20:07;0.00;;;0.00;;
69943;SDS011;57257;48.408;-4.498;2023-08-06T11:22:33;0.00;;;0.00;;
69943;SDS011;57257;48.408;-4.498;2023-08-06T11:24:58;0.00;;;0.00;;
69943;SDS011;57257;48.408;-4.498;2023-08-06T11:27:26;0.00;;;0.00;;
69943;SDS011;57257;48.408;-4.498;2023-08-06T11:29:53;0.00;;;0.00;;
69943;SDS011;57257;48.408;-4.498;2023-08-06T11:32:18;0.50;;;0.00;;
69943;SDS011;57257;48.408;-4.498;2023-08-06T11:34:44;0.00;;;0.00;;
69943;SDS011;57257;48.408;-4.498;2023-08-06T11:37:09;0.00;;;0.00;;
69943;SDS011;57257;48.408;-4.498;2023-08-06T11:39:35;0.25;;;0.25;;
69943;SDS011;57257;48.408;-4.498;2023-08-06T11:42:05;0.25;;;0.25;;
69943;SDS011;57257;48.408;-4.498;2023-08-06T11:44:32;1.00;;;0.00;;
69943;SDS011;57257;48.408;-4.498;2023-08-06T11:47:00;0.00;;;0.00;;
69943;SDS011;57257;48.408;-4.498;2023-08-06T11:49:40;0.00;;;0.00;;
69943;SDS011;57257;48.408;-4.498;2023-08-06T11:52:17;0.50;;;0.00;;
69943;SDS011;57257;48.408;-4.498;2023-08-06T11:54:45;0.00;;;0.00;;
69943;SDS011;57257;48.408;-4.498;2023-08-06T11:57:12;0.25;;;0.00;;
69943;SDS011;57257;48.408;-4.498;2023-08-06T11:59:38;2.00;;;1.00;;
69943;SDS011;57257;48.408;-4.498;2023-08-06T12:02:04;1.00;;;0.00;;
69943;SDS011;57257;48.408;-4.498;2023-08-06T12:07:28;1.00;;;0.00;;
69943;SDS011;57257;48.408;-4.498;2023-08-06T12:09:57;0.00;;;0.00;;
69943;SDS011;57257;48.408;-4.498;2023-08-06T12:12:24;0.00;;;0.00;;
69943;SDS011;57257;48.408;-4.498;2023-08-06T12:14:49;0.75;;;0.75;;
69943;SDS011;57257;48.408;-4.498;2023-08-06T12:17:15;7.00;;;0.25;;
69943;SDS011;57257;48.408;-4.498;2023-08-06T12:19:40;0.00;;;0.00;;
69943;SDS011;57257;48.408;-4.498;2023-08-06T12:22:06;0.00;;;0.00;;
69943;SDS011;57257;48.408;-4.498;2023-08-06T12:24:31;1.00;;;0.00;;
69943;SDS011;57257;48.408;-4.498;2023-08-06T12:26:57;0.00;;;0.00;;
69943;SDS011;57257;48.408;-4.498;2023-08-06T12:29:23;0.00;;;0.00;;
69943;SDS011;57257;48.408;-4.498;2023-08-06T12:31:48;0.00;;;0.00;;
69943;SDS011;57257;48.408;-4.498;2023-08-06T12:34:14;2.00;;;0.75;;
69943;SDS011;57257;48.408;-4.498;2023-08-06T12:36:40;1.25;;;0.75;;
69943;SDS011;57257;48.408;-4.498;2023-08-06T12:39:05;0.00;;;0.00;;
69943;SDS011;57257;48.408;-4.498;2023-08-06T12:41:30;3.00;;;0.00;;
69943;SDS011;57257;48.408;-4.498;2023-08-06T12:43:56;0.00;;;0.00;;
69943;SDS011;57257;48.408;-4.498;2023-08-06T12:46:21;0.25;;;0.25;;
69943;SDS011;57257;48.408;-4.498;2023-08-06T12:48:47;0.00;;;0.00;;
69943;SDS011;57257;48.408;-4.498;2023-08-06T12:51:13;2.00;;;1.00;;
69943;SDS011;57257;48.408;-4.498;2023-08-06T12:53:39;0.00;;;0.00;;
69943;SDS011;57257;48.408;-4.498;2023-08-06T12:56:04;0.00;;;0.00;;
69943;SDS011;57257;48.408;-4.498;2023-08-06T12:58:30;0.00;;;0.00;;
69943;SDS011;57257;48.408;-4.498;2023-08-06T13:00:56;1.00;;;0.00;;
69943;SDS011;57257;48.408;-4.498;2023-08-06T13:03:21;1.00;;;1.00;;
69943;SDS011;57257;48.408;-4.498;2023-08-06T13:05:47;0.75;;;0.75;;
69943;SDS011;57257;48.408;-4.498;2023-08-06T13:08:12;2.00;;;0.50;;
69943;SDS011;57257;48.408;-4.498;2023-08-06T13:10:38;0.00;;;0.00;;
69943;SDS011;57257;48.408;-4.498;2023-08-06T13:13:03;3.25;;;1.00;;
69943;SDS011;57257;48.408;-4.498;2023-08-06T13:15:29;1.00;;;0.00;;
69943;SDS011;57257;48.408;-4.498;2023-08-06T13:17:54;1.00;;;1.00;;
69943;SDS011;57257;48.408;-4.498;2023-08-06T13:20:20;2.00;;;0.00;;
69943;SDS011;57257;48.408;-4.498;2023-08-06T13:22:45;0.00;;;0.00;;
69943;SDS011;57257;48.408;-4.498;2023-08-06T13:25:11;0.75;;;0.00;;
69943;SDS011;57257;48.408;-4.498;2023-08-06T13:27:39;0.00;;;0.00;;
69943;SDS011;57257;48.408;-4.498;2023-08-06T13:30:05;1.00;;;1.00;;
69943;SDS011;57257;48.408;-4.498;2023-08-06T13:32:31;1.00;;;0.00;;
69943;SDS011;57257;48.408;-4.498;2023-08-06T13:34:57;0.00;;;0.00;;
69943;SDS011;57257;48.408;-4.498;2023-08-06T13:37:23;0.00;;;0.00;;
69943;SDS011;57257;48.408;-4.498;2023-08-06T13:39:48;0.00;;;0.00;;
69943;SDS011;57257;48.408;-4.498;2023-08-06T13:42:13;0.00;;;0.00;;
69943;SDS011;57257;48.408;-4.498;2023-08-06T13:44:39;0.75;;;0.75;;
69943;SDS011;57257;48.408;-4.498;2023-08-06T13:47:04;1.50;;;0.75;;
69943;SDS011;57257;48.408;-4.498;2023-08-06T13:49:30;1.00;;;0.00;;
69943;SDS011;57257;48.408;-4.498;2023-08-06T13:51:55;0.00;;;0.00;;
69943;SDS011;57257;48.408;-4.498;2023-08-06T13:54:20;1.00;;;1.00;;
69943;SDS011;57257;48.408;-4.498;2023-08-06T13:56:46;0.50;;;0.00;;
69943;SDS011;57257;48.408;-4.498;2023-08-06T13:59:11;0.00;;;0.00;;
69943;SDS011;57257;48.408;-4.498;2023-08-06T14:01:40;0.50;;;0.00;;
69943;SDS011;57257;48.408;-4.498;2023-08-06T14:04:05;0.50;;;0.50;;
69943;SDS011;57257;48.408;-4.498;2023-08-06T14:06:30;0.00;;;0.00;;
69943;SDS011;57257;48.408;-4.498;2023-08-06T14:08:56;0.25;;;0.25;;
69943;SDS011;57257;48.408;-4.498;2023-08-06T14:11:21;1.00;;;0.75;;
69943;SDS011;57257;48.408;-4.498;2023-08-06T14:13:47;0.00;;;0.00;;
69943;SDS011;57257;48.408;-4.498;2023-08-06T14:16:12;1.00;;;0.00;;
69943;SDS011;57257;48.408;-4.498;2023-08-06T14:18:38;0.00;;;0.00;;
69943;SDS011;57257;48.408;-4.498;2023-08-06T14:21:04;4.75;;;0.75;;
69943;SDS011;57257;48.408;-4.498;2023-08-06T14:23:29;2.00;;;0.00;;
69943;SDS011;57257;48.408;-4.498;2023-08-06T14:25:55;0.00;;;0.00;;
69943;SDS011;57257;48.408;-4.498;2023-08-06T14:28:20;0.00;;;0.00;;
69943;SDS011;57257;48.408;-4.498;2023-08-06T14:30:45;0.00;;;0.00;;
69943;SDS011;57257;48.408;-4.498;2023-08-06T14:33:11;0.00;;;0.00;;
69943;SDS011;57257;48.408;-4.498;2023-08-06T14:35:36;0.00;;;0.00;;
69943;SDS011;57257;48.408;-4.498;2023-08-06T14:38:02;0.00;;;0.00;;
69943;SDS011;57257;48.408;-4.498;2023-08-06T14:40:27;0.00;;;0.00;;
69943;SDS011;57257;48.408;-4.498;2023-08-06T14:42:58;1.00;;;1.00;;
69943;SDS011;57257;48.408;-4.498;2023-08-06T14:45:24;1.50;;;1.00;;
69943;SDS011;57257;48.408;-4.498;2023-08-06T14:47:49;1.00;;;1.00;;